Estación Meteorológica Peña el Pijo (Robertgarden) [ 07/21/17 06:32:07 CEST ]

Fecha Hora Presion(HPa) Temp (°C) Humedad % Rocio (°C) Viento ( m/s) Direccion Lluvia 1Hora(mm) Lluvia 24H(mm) LLuvia Total(mm)
2017-Apr-23 01:01:50 1010.900 6.3 75 2.2         1357.67
2017-Apr-23 02:01:39 1010.600 5.4 78 1.8         1357.67
2017-Apr-23 03:01:44 1010.100 4.6 80 1.4         1357.67
2017-Apr-23 04:06:11 1009.300 4.2 81 1.2         1357.67
2017-Apr-23 05:01:40 1009.200 3.8 82 1.0         1357.67
2017-Apr-23 06:01:39 1009.100 3.8 83 1.2         1357.67
2017-Apr-23 07:01:46 1009.100 3.6 84 1.1         1357.67
2017-Apr-23 08:01:43 1009.000 3.7 85 1.4         1357.67
2017-Apr-23 09:01:54 1009.100 8.6 86 6.4         1357.67
2017-Apr-23 10:01:45 1009.100 14.9 75 10.5         1357.67
2017-Apr-23 11:01:53 1008.800 19.3 54 9.8         1357.67
2017-Apr-23 12:02:05 1008.900 23.3 40 9.0         1357.67
2017-Apr-23 13:01:59 1008.400 24.7 33 7.3         1357.67
2017-Apr-23 14:01:51 1007.800 24.3 34 7.3         1357.67
2017-Apr-23 15:01:54 1007.800 21.3 36 5.5         1357.67
2017-Apr-23 16:01:55 1007.900 18.5 37 3.4         1357.67
2017-Apr-23 17:01:49 1007.700 20.1 36 4.4         1357.67
2017-Apr-23 18:01:50 1007.200 17.0 47 5.5         1357.67
2017-Apr-23 19:01:53 1007.300 17.4 50 6.9         1357.67
2017-Apr-23 20:01:58 1007.700 16.9 49 6.1         1357.67
2017-Apr-23 21:01:48 1008.100 14.8 56 6.1         1357.67
2017-Apr-23 22:01:41 1009.600 13.3 64 6.6         1357.67
2017-Apr-23 23:01:47 1009.500 12.5 70 7.2         1357.67

Temperatura Máxima:24°    Temperatura Mínima:
Presión Máxima:1010.900 Hpa    Presión Mínima:1007.200 Hpa


Volver